sensor_id;sensor_type;location;lat;lon;timestamp;temperature;humidity
59999;DHT22;45859;51.378;6.736;2023-04-03T00:02:12;1.00;99.90
59999;DHT22;45859;51.378;6.736;2023-04-03T00:04:37;0.60;99.90
59999;DHT22;45859;51.378;6.736;2023-04-03T00:09:29;1.10;99.90
59999;DHT22;45859;51.378;6.736;2023-04-03T00:11:54;0.90;99.90
59999;DHT22;45859;51.378;6.736;2023-04-03T00:14:20;1.40;99.90
59999;DHT22;45859;51.378;6.736;2023-04-03T00:19:12;1.10;99.90
59999;DHT22;45859;51.378;6.736;2023-04-03T00:21:38;1.10;99.90
59999;DHT22;45859;51.378;6.736;2023-04-03T00:24:04;0.80;99.90
59999;DHT22;45859;51.378;6.736;2023-04-03T00:28:55;1.20;99.90
59999;DHT22;45859;51.378;6.736;2023-04-03T00:31:21;1.30;99.90
59999;DHT22;45859;51.378;6.736;2023-04-03T00:33:47;0.80;99.90
59999;DHT22;45859;51.378;6.736;2023-04-03T00:36:13;-0.50;99.90
59999;DHT22;45859;51.378;6.736;2023-04-03T00:38:39;1.20;99.90
59999;DHT22;45859;51.378;6.736;2023-04-03T00:41:05;0.60;99.90
59999;DHT22;45859;51.378;6.736;2023-04-03T00:43:31;0.70;99.90
59999;DHT22;45859;51.378;6.736;2023-04-03T00:45:57;0.50;99.90
59999;DHT22;45859;51.378;6.736;2023-04-03T00:48:31;0.70;99.90
59999;DHT22;45859;51.378;6.736;2023-04-03T00:50:58;0.80;99.90
59999;DHT22;45859;51.378;6.736;2023-04-03T00:53:29;0.30;99.90
59999;DHT22;45859;51.378;6.736;2023-04-03T00:55:56;0.50;99.90
59999;DHT22;45859;51.378;6.736;2023-04-03T00:58:28;0.50;99.90
59999;DHT22;45859;51.378;6.736;2023-04-03T01:00:58;0.80;99.90
59999;DHT22;45859;51.378;6.736;2023-04-03T01:03:28;0.50;99.90
59999;DHT22;45859;51.378;6.736;2023-04-03T01:05:56;0.30;99.90
59999;DHT22;45859;51.378;6.736;2023-04-03T01:08:22;0.70;99.90
59999;DHT22;45859;51.378;6.736;2023-04-03T01:10:48;0.50;99.90
59999;DHT22;45859;51.378;6.736;2023-04-03T01:13:36;0.40;99.90
59999;DHT22;45859;51.378;6.736;2023-04-03T01:16:03;0.30;99.90
59999;DHT22;45859;51.378;6.736;2023-04-03T01:25:58;0.00;99.90
59999;DHT22;45859;51.378;6.736;2023-04-03T01:28:30;-1.10;99.90
59999;DHT22;45859;51.378;6.736;2023-04-03T01:33:25;0.90;99.90
59999;DHT22;45859;51.378;6.736;2023-04-03T01:35:50;0.60;99.90
59999;DHT22;45859;51.378;6.736;2023-04-03T01:38:16;0.50;99.90
59999;DHT22;45859;51.378;6.736;2023-04-03T01:40:42;0.60;99.90
59999;DHT22;45859;51.378;6.736;2023-04-03T01:43:08;0.80;99.90
59999;DHT22;45859;51.378;6.736;2023-04-03T01:45:33;0.60;99.90
59999;DHT22;45859;51.378;6.736;2023-04-03T01:47:59;0.30;99.90
59999;DHT22;45859;51.378;6.736;2023-04-03T01:50:25;0.70;99.90
59999;DHT22;45859;51.378;6.736;2023-04-03T01:52:50;0.70;99.90
59999;DHT22;45859;51.378;6.736;2023-04-03T01:55:16;-0.90;99.90
59999;DHT22;45859;51.378;6.736;2023-04-03T01:57:41;0.30;99.90
59999;DHT22;45859;51.378;6.736;2023-04-03T02:00:08;0.30;99.90
59999;DHT22;45859;51.378;6.736;2023-04-03T02:02:33;1.10;99.90
59999;DHT22;45859;51.378;6.736;2023-04-03T02:14:43;0.40;99.90
59999;DHT22;45859;51.378;6.736;2023-04-03T02:17:08;1.10;99.90
59999;DHT22;45859;51.378;6.736;2023-04-03T02:19:35;1.40;99.90
59999;DHT22;45859;51.378;6.736;2023-04-03T02:22:02;1.10;99.90
59999;DHT22;45859;51.378;6.736;2023-04-03T02:26:54;0.30;99.90
59999;DHT22;45859;51.378;6.736;2023-04-03T02:29:19;1.30;99.90
59999;DHT22;45859;51.378;6.736;2023-04-03T02:31:45;-0.40;99.90
59999;DHT22;45859;51.378;6.736;2023-04-03T02:34:11;-0.40;99.90
59999;DHT22;45859;51.378;6.736;2023-04-03T02:36:37;0.90;99.90
59999;DHT22;45859;51.378;6.736;2023-04-03T02:39:02;1.50;99.90
59999;DHT22;45859;51.378;6.736;2023-04-03T02:41:29;1.30;99.90
59999;DHT22;45859;51.378;6.736;2023-04-03T02:44:04;-0.20;99.90
59999;DHT22;45859;51.378;6.736;2023-04-03T02:46:30;1.20;99.90
59999;DHT22;45859;51.378;6.736;2023-04-03T02:48:56;1.40;99.90
59999;DHT22;45859;51.378;6.736;2023-04-03T02:51:22;1.60;99.90
59999;DHT22;45859;51.378;6.736;2023-04-03T02:53:49;1.00;99.90
59999;DHT22;45859;51.378;6.736;2023-04-03T03:01:06;1.20;99.90
59999;DHT22;45859;51.378;6.736;2023-04-03T03:03:32;1.30;99.90
59999;DHT22;45859;51.378;6.736;2023-04-03T03:06:09;1.00;99.90
59999;DHT22;45859;51.378;6.736;2023-04-03T03:08:35;0.20;99.90
59999;DHT22;45859;51.378;6.736;2023-04-03T03:11:01;1.20;99.90
59999;DHT22;45859;51.378;6.736;2023-04-03T03:13:27;1.00;99.90
59999;DHT22;45859;51.378;6.736;2023-04-03T03:15:52;1.00;99.90
59999;DHT22;45859;51.378;6.736;2023-04-03T03:18:18;1.90;99.90
59999;DHT22;45859;51.378;6.736;2023-04-03T03:20:44;1.70;99.90
59999;DHT22;45859;51.378;6.736;2023-04-03T03:25:39;-0.20;99.90
59999;DHT22;45859;51.378;6.736;2023-04-03T03:28:05;1.20;99.90
59999;DHT22;45859;51.378;6.736;2023-04-03T03:30:31;-0.60;99.90
59999;DHT22;45859;51.378;6.736;2023-04-03T03:32:57;1.20;99.90
59999;DHT22;45859;51.378;6.736;2023-04-03T03:35:22;0.00;99.90
59999;DHT22;45859;51.378;6.736;2023-04-03T03:37:48;2.00;99.90
59999;DHT22;45859;51.378;6.736;2023-04-03T03:47:32;1.20;99.90
59999;DHT22;45859;51.378;6.736;2023-04-03T03:49:58;1.90;99.90
59999;DHT22;45859;51.378;6.736;2023-04-03T03:52:23;-0.40;99.90
59999;DHT22;45859;51.378;6.736;2023-04-03T03:54:49;1.70;99.90
59999;DHT22;45859;51.378;6.736;2023-04-03T03:57:14;0.40;99.90
59999;DHT22;45859;51.378;6.736;2023-04-03T04:02:07;0.60;99.90
59999;DHT22;45859;51.378;6.736;2023-04-03T04:04:33;0.60;99.90
59999;DHT22;45859;51.378;6.736;2023-04-03T04:06:58;0.60;99.90
59999;DHT22;45859;51.378;6.736;2023-04-03T04:09:26;0.50;99.90
59999;DHT22;45859;51.378;6.736;2023-04-03T04:11:52;1.80;99.90
59999;DHT22;45859;51.378;6.736;2023-04-03T04:14:17;2.40;99.90
59999;DHT22;45859;51.378;6.736;2023-04-03T04:16:43;1.10;99.90
59999;DHT22;45859;51.378;6.736;2023-04-03T04:26:27;1.70;99.90
59999;DHT22;45859;51.378;6.736;2023-04-03T04:28:52;0.10;99.90
59999;DHT22;45859;51.378;6.736;2023-04-03T04:31:18;-0.70;99.90
59999;DHT22;45859;51.378;6.736;2023-04-03T04:33:44;1.70;99.90
59999;DHT22;45859;51.378;6.736;2023-04-03T04:46:04;1.30;99.90
59999;DHT22;45859;51.378;6.736;2023-04-03T04:48:30;2.40;99.90
59999;DHT22;45859;51.378;6.736;2023-04-03T05:00:40;1.30;99.90
59999;DHT22;45859;51.378;6.736;2023-04-03T05:03:06;1.20;99.90
59999;DHT22;45859;51.378;6.736;2023-04-03T05:05:31;-0.30;99.90
59999;DHT22;45859;51.378;6.736;2023-04-03T05:07:57;1.40;99.90
59999;DHT22;45859;51.378;6.736;2023-04-03T05:10:23;1.30;99.90
59999;DHT22;45859;51.378;6.736;2023-04-03T05:12:48;1.20;99.90
59999;DHT22;45859;51.378;6.736;2023-04-03T05:15:14;2.20;99.90
59999;DHT22;45859;51.378;6.736;2023-04-03T05:17:39;1.20;99.90
59999;DHT22;45859;51.378;6.736;2023-04-03T05:20:06;1.20;99.90
59999;DHT22;45859;51.378;6.736;2023-04-03T05:22:32;-0.70;99.90
59999;DHT22;45859;51.378;6.736;2023-04-03T05:24:57;0.60;99.90
59999;DHT22;45859;51.378;6.736;2023-04-03T05:29:50;0.50;99.90
59999;DHT22;45859;51.378;6.736;2023-04-03T05:37:10;1.30;99.90
59999;DHT22;45859;51.378;6.736;2023-04-03T05:42:03;1.50;99.90
59999;DHT22;45859;51.378;6.736;2023-04-03T05:44:29;1.80;99.90
59999;DHT22;45859;51.378;6.736;2023-04-03T05:46:55;1.40;99.90
59999;DHT22;45859;51.378;6.736;2023-04-03T05:49:21;2.60;99.90
59999;DHT22;45859;51.378;6.736;2023-04-03T05:54:17;2.90;99.90
59999;DHT22;45859;51.378;6.736;2023-04-03T05:56:44;1.80;99.90
59999;DHT22;45859;51.378;6.736;2023-04-03T05:59:10;2.00;99.90
59999;DHT22;45859;51.378;6.736;2023-04-03T06:01:35;1.80;99.90
59999;DHT22;45859;51.378;6.736;2023-04-03T06:04:01;2.00;99.90
59999;DHT22;45859;51.378;6.736;2023-04-03T06:06:50;2.10;99.90
59999;DHT22;45859;51.378;6.736;2023-04-03T06:09:17;2.30;99.90
59999;DHT22;45859;51.378;6.736;2023-04-03T06:11:43;1.20;99.90
59999;DHT22;45859;51.378;6.736;2023-04-03T06:14:09;1.40;99.90
59999;DHT22;45859;51.378;6.736;2023-04-03T06:16:35;2.40;99.90
59999;DHT22;45859;51.378;6.736;2023-04-03T06:21:27;4.10;99.90
59999;DHT22;45859;51.378;6.736;2023-04-03T06:23:53;4.60;99.90
59999;DHT22;45859;51.378;6.736;2023-04-03T06:28:46;5.00;99.90
59999;DHT22;45859;51.378;6.736;2023-04-03T06:31:11;5.30;99.90
59999;DHT22;45859;51.378;6.736;2023-04-03T06:36:04;5.80;99.90
59999;DHT22;45859;51.378;6.736;2023-04-03T06:38:31;6.00;99.90
59999;DHT22;45859;51.378;6.736;2023-04-03T06:40:57;6.10;99.90
59999;DHT22;45859;51.378;6.736;2023-04-03T06:43:22;6.90;99.90
59999;DHT22;45859;51.378;6.736;2023-04-03T06:45:48;6.40;99.90
59999;DHT22;45859;51.378;6.736;2023-04-03T06:48:14;7.00;99.90
59999;DHT22;45859;51.378;6.736;2023-04-03T06:50:39;6.60;99.90
59999;DHT22;45859;51.378;6.736;2023-04-03T06:53:05;6.90;99.90
59999;DHT22;45859;51.378;6.736;2023-04-03T06:55:32;7.10;99.90
59999;DHT22;45859;51.378;6.736;2023-04-03T06:57:58;7.00;99.90
59999;DHT22;45859;51.378;6.736;2023-04-03T07:00:23;7.60;99.90
59999;DHT22;45859;51.378;6.736;2023-04-03T07:02:50;7.90;99.90
59999;DHT22;45859;51.378;6.736;2023-04-03T07:05:17;7.50;99.90
59999;DHT22;45859;51.378;6.736;2023-04-03T07:07:43;7.90;99.90
59999;DHT22;45859;51.378;6.736;2023-04-03T07:10:09;8.90;99.90
59999;DHT22;45859;51.378;6.736;2023-04-03T07:12:35;7.60;99.90
59999;DHT22;45859;51.378;6.736;2023-04-03T07:15:01;7.20;99.90
59999;DHT22;45859;51.378;6.736;2023-04-03T07:17:26;7.70;99.90
59999;DHT22;45859;51.378;6.736;2023-04-03T07:19:52;8.20;99.90
59999;DHT22;45859;51.378;6.736;2023-04-03T07:22:18;8.20;99.90
59999;DHT22;45859;51.378;6.736;2023-04-03T07:24:44;8.10;99.90
59999;DHT22;45859;51.378;6.736;2023-04-03T07:27:09;8.00;99.90
59999;DHT22;45859;51.378;6.736;2023-04-03T07:29:38;8.20;99.90
59999;DHT22;45859;51.378;6.736;2023-04-03T07:32:04;8.50;99.90
59999;DHT22;45859;51.378;6.736;2023-04-03T07:34:31;8.30;99.90
59999;DHT22;45859;51.378;6.736;2023-04-03T07:36:56;8.40;99.90
59999;DHT22;45859;51.378;6.736;2023-04-03T07:39:23;8.70;99.90
59999;DHT22;45859;51.378;6.736;2023-04-03T07:41:48;8.30;99.90
59999;DHT22;45859;51.378;6.736;2023-04-03T07:44:14;8.30;99.90
59999;DHT22;45859;51.378;6.736;2023-04-03T07:46:39;8.50;99.90
59999;DHT22;45859;51.378;6.736;2023-04-03T07:49:06;8.80;99.90
59999;DHT22;45859;51.378;6.736;2023-04-03T07:51:32;9.20;99.90
59999;DHT22;45859;51.378;6.736;2023-04-03T07:53:57;9.60;99.90
59999;DHT22;45859;51.378;6.736;2023-04-03T07:56:24;10.30;99.90
59999;DHT22;45859;51.378;6.736;2023-04-03T07:58:50;10.30;99.90
59999;DHT22;45859;51.378;6.736;2023-04-03T08:01:16;10.30;99.90
59999;DHT22;45859;51.378;6.736;2023-04-03T08:03:41;10.10;99.90
59999;DHT22;45859;51.378;6.736;2023-04-03T08:06:08;9.80;99.90
59999;DHT22;45859;51.378;6.736;2023-04-03T08:08:34;9.60;99.90
59999;DHT22;45859;51.378;6.736;2023-04-03T08:11:01;10.20;99.90
59999;DHT22;45859;51.378;6.736;2023-04-03T08:13:28;10.60;99.90
59999;DHT22;45859;51.378;6.736;2023-04-03T08:15:54;9.80;99.90
59999;DHT22;45859;51.378;6.736;2023-04-03T08:18:23;11.00;99.90
59999;DHT22;45859;51.378;6.736;2023-04-03T08:20:50;10.70;99.90
59999;DHT22;45859;51.378;6.736;2023-04-03T08:23:16;10.50;99.90
59999;DHT22;45859;51.378;6.736;2023-04-03T08:25:42;10.70;99.90
59999;DHT22;45859;51.378;6.736;2023-04-03T08:28:09;10.10;99.90
59999;DHT22;45859;51.378;6.736;2023-04-03T08:30:35;10.30;99.90
59999;DHT22;45859;51.378;6.736;2023-04-03T08:33:01;10.40;99.90
59999;DHT22;45859;51.378;6.736;2023-04-03T08:35:28;10.50;99.90
59999;DHT22;45859;51.378;6.736;2023-04-03T08:37:53;11.70;99.90
59999;DHT22;45859;51.378;6.736;2023-04-03T08:40:20;11.20;99.90
59999;DHT22;45859;51.378;6.736;2023-04-03T08:43:10;11.00;99.90
59999;DHT22;45859;51.378;6.736;2023-04-03T08:45:46;11.70;99.90
59999;DHT22;45859;51.378;6.736;2023-04-03T08:48:16;11.60;99.90
59999;DHT22;45859;51.378;6.736;2023-04-03T08:50:47;11.10;99.90
59999;DHT22;45859;51.378;6.736;2023-04-03T08:53:28;11.50;99.90
59999;DHT22;45859;51.378;6.736;2023-04-03T08:55:56;10.30;99.90
59999;DHT22;45859;51.378;6.736;2023-04-03T08:58:28;9.80;99.90
59999;DHT22;45859;51.378;6.736;2023-04-03T09:01:07;10.20;99.90
59999;DHT22;45859;51.378;6.736;2023-04-03T09:03:41;10.90;99.90
59999;DHT22;45859;51.378;6.736;2023-04-03T09:06:13;11.70;99.90
59999;DHT22;45859;51.378;6.736;2023-04-03T09:17:14;11.30;99.90
59999;DHT22;45859;51.378;6.736;2023-04-03T09:20:14;11.00;99.90
59999;DHT22;45859;51.378;6.736;2023-04-03T09:22:44;11.00;99.90
59999;DHT22;45859;51.378;6.736;2023-04-03T09:25:56;11.40;99.90
59999;DHT22;45859;51.378;6.736;2023-04-03T09:28:01;11.10;99.90
59999;DHT22;45859;51.378;6.736;2023-04-03T09:30:28;8.70;99.90
59999;DHT22;45859;51.378;6.736;2023-04-03T09:32:55;9.40;99.90
59999;DHT22;45859;51.378;6.736;2023-04-03T09:35:25;9.90;99.90
59999;DHT22;45859;51.378;6.736;2023-04-03T09:38:13;9.80;99.90
59999;DHT22;45859;51.378;6.736;2023-04-03T09:40:42;10.00;99.90
59999;DHT22;45859;51.378;6.736;2023-04-03T09:45:44;8.70;99.90
59999;DHT22;45859;51.378;6.736;2023-04-03T09:50:56;8.60;99.90
59999;DHT22;45859;51.378;6.736;2023-04-03T09:53:40;9.30;99.90
59999;DHT22;45859;51.378;6.736;2023-04-03T09:58:43;8.60;99.90
59999;DHT22;45859;51.378;6.736;2023-04-03T10:01:30;8.60;99.90
59999;DHT22;45859;51.378;6.736;2023-04-03T10:04:17;8.30;99.90
59999;DHT22;45859;51.378;6.736;2023-04-03T10:06:47;8.60;99.90
59999;DHT22;45859;51.378;6.736;2023-04-03T10:09:33;8.40;99.90
59999;DHT22;45859;51.378;6.736;2023-04-03T10:12:10;7.90;99.90
59999;DHT22;45859;51.378;6.736;2023-04-03T10:14:55;8.00;99.90
59999;DHT22;45859;51.378;6.736;2023-04-03T10:20:00;8.80;99.90
59999;DHT22;45859;51.378;6.736;2023-04-03T10:22:42;7.90;99.90
59999;DHT22;45859;51.378;6.736;2023-04-03T10:28:38;7.90;99.90
59999;DHT22;45859;51.378;6.736;2023-04-03T10:34:21;8.10;99.90
59999;DHT22;45859;51.378;6.736;2023-04-03T10:42:13;7.80;99.90
59999;DHT22;45859;51.378;6.736;2023-04-03T10:52:48;8.20;99.90
59999;DHT22;45859;51.378;6.736;2023-04-03T10:55:34;8.00;99.90
59999;DHT22;45859;51.378;6.736;2023-04-03T10:58:02;8.20;99.90
59999;DHT22;45859;51.378;6.736;2023-04-03T11:00:40;8.10;99.90
59999;DHT22;45859;51.378;6.736;2023-04-03T11:03:15;7.80;99.90
59999;DHT22;45859;51.378;6.736;2023-04-03T11:08:29;7.80;99.90
59999;DHT22;45859;51.378;6.736;2023-04-03T11:11:01;8.20;99.90
59999;DHT22;45859;51.378;6.736;2023-04-03T11:13:39;8.10;99.90
59999;DHT22;45859;51.378;6.736;2023-04-03T11:16:06;8.30;99.90
59999;DHT22;45859;51.378;6.736;2023-04-03T11:18:49;8.10;99.90
59999;DHT22;45859;51.378;6.736;2023-04-03T11:21:43;8.20;99.90
59999;DHT22;45859;51.378;6.736;2023-04-03T11:24:32;8.30;99.90
59999;DHT22;45859;51.378;6.736;2023-04-03T11:26:59;8.10;99.90
59999;DHT22;45859;51.378;6.736;2023-04-03T11:29:35;9.10;99.90
59999;DHT22;45859;51.378;6.736;2023-04-03T11:34:55;8.10;99.90
59999;DHT22;45859;51.378;6.736;2023-04-03T11:37:34;8.30;99.90
59999;DHT22;45859;51.378;6.736;2023-04-03T11:42:46;8.20;99.90
59999;DHT22;45859;51.378;6.736;2023-04-03T11:47:54;8.30;99.90
59999;DHT22;45859;51.378;6.736;2023-04-03T11:50:46;8.40;99.90
59999;DHT22;45859;51.378;6.736;2023-04-03T11:58:23;8.30;99.90
59999;DHT22;45859;51.378;6.736;2023-04-03T12:00:55;8.20;99.90
59999;DHT22;45859;51.378;6.736;2023-04-03T12:26:51;8.20;99.90
59999;DHT22;45859;51.378;6.736;2023-04-03T12:43:28;8.20;99.90
59999;DHT22;45859;51.378;6.736;2023-04-03T12:48:31;8.30;99.90
59999;DHT22;45859;51.378;6.736;2023-04-03T12:50:58;8.30;99.90
59999;DHT22;45859;51.378;6.736;2023-04-03T12:53:27;8.30;99.90
59999;DHT22;45859;51.378;6.736;2023-04-03T12:55:55;8.30;99.90
59999;DHT22;45859;51.378;6.736;2023-04-03T12:58:25;8.30;99.90
59999;DHT22;45859;51.378;6.736;2023-04-03T13:01:13;8.20;99.90
59999;DHT22;45859;51.378;6.736;2023-04-03T13:03:43;8.20;99.90
59999;DHT22;45859;51.378;6.736;2023-04-03T13:06:27;8.20;99.90
59999;DHT22;45859;51.378;6.736;2023-04-03T13:08:56;8.30;99.90
59999;DHT22;45859;51.378;6.736;2023-04-03T13:11:30;9.10;99.90
59999;DHT22;45859;51.378;6.736;2023-04-03T13:13:59;8.40;99.90
59999;DHT22;45859;51.378;6.736;2023-04-03T13:16:25;8.50;99.90
59999;DHT22;45859;51.378;6.736;2023-04-03T13:18:55;8.60;99.90
59999;DHT22;45859;51.378;6.736;2023-04-03T13:21:28;8.70;99.90
59999;DHT22;45859;51.378;6.736;2023-04-03T13:24:01;8.40;99.90
59999;DHT22;45859;51.378;6.736;2023-04-03T13:26:30;8.30;99.90
59999;DHT22;45859;51.378;6.736;2023-04-03T13:29:01;8.40;99.90
59999;DHT22;45859;51.378;6.736;2023-04-03T13:31:35;8.40;99.90
59999;DHT22;45859;51.378;6.736;2023-04-03T13:34:13;8.40;99.90
59999;DHT22;45859;51.378;6.736;2023-04-03T13:42:17;8.10;99.90
59999;DHT22;45859;51.378;6.736;2023-04-03T13:44:47;8.20;99.90
59999;DHT22;45859;51.378;6.736;2023-04-03T13:47:23;8.40;99.90
59999;DHT22;45859;51.378;6.736;2023-04-03T13:52:47;8.40;99.90
59999;DHT22;45859;51.378;6.736;2023-04-03T13:55:29;8.30;99.90
59999;DHT22;45859;51.378;6.736;2023-04-03T13:58:02;8.30;99.90
59999;DHT22;45859;51.378;6.736;2023-04-03T14:00:50;8.30;99.90
59999;DHT22;45859;51.378;6.736;2023-04-03T14:06:18;8.40;99.90
59999;DHT22;45859;51.378;6.736;2023-04-03T14:08:44;8.40;99.90
59999;DHT22;45859;51.378;6.736;2023-04-03T14:11:19;9.60;99.90
59999;DHT22;45859;51.378;6.736;2023-04-03T14:13:46;8.50;99.90
59999;DHT22;45859;51.378;6.736;2023-04-03T14:16:15;8.60;99.90
59999;DHT22;45859;51.378;6.736;2023-04-03T14:18:42;8.50;99.90
59999;DHT22;45859;51.378;6.736;2023-04-03T14:21:12;8.50;99.90
59999;DHT22;45859;51.378;6.736;2023-04-03T14:23:37;8.50;99.90
59999;DHT22;45859;51.378;6.736;2023-04-03T14:26:08;7.90;99.90
59999;DHT22;45859;51.378;6.736;2023-04-03T14:28:35;7.00;99.90
59999;DHT22;45859;51.378;6.736;2023-04-03T14:31:00;8.90;99.90
59999;DHT22;45859;51.378;6.736;2023-04-03T14:33:26;8.90;99.90
59999;DHT22;45859;51.378;6.736;2023-04-03T14:35:53;8.70;99.90
59999;DHT22;45859;51.378;6.736;2023-04-03T14:38:27;8.60;99.90
59999;DHT22;45859;51.378;6.736;2023-04-03T14:40:55;8.50;99.90
59999;DHT22;45859;51.378;6.736;2023-04-03T14:43:21;8.40;99.90
59999;DHT22;45859;51.378;6.736;2023-04-03T14:45:48;8.50;99.90
59999;DHT22;45859;51.378;6.736;2023-04-03T14:48:20;8.50;99.90
59999;DHT22;45859;51.378;6.736;2023-04-03T14:50:47;8.60;99.90
59999;DHT22;45859;51.378;6.736;2023-04-03T14:53:14;9.00;99.90
59999;DHT22;45859;51.378;6.736;2023-04-03T14:55:42;8.50;99.90
59999;DHT22;45859;51.378;6.736;2023-04-03T14:58:16;8.50;99.90
59999;DHT22;45859;51.378;6.736;2023-04-03T15:00:43;8.50;99.90
59999;DHT22;45859;51.378;6.736;2023-04-03T15:03:20;8.50;99.90
59999;DHT22;45859;51.378;6.736;2023-04-03T15:05:47;9.20;99.90
59999;DHT22;45859;51.378;6.736;2023-04-03T15:08:24;8.40;99.90
59999;DHT22;45859;51.378;6.736;2023-04-03T15:10:51;8.40;99.90
59999;DHT22;45859;51.378;6.736;2023-04-03T15:13:18;8.40;99.90
59999;DHT22;45859;51.378;6.736;2023-04-03T15:15:44;8.40;99.90
59999;DHT22;45859;51.378;6.736;2023-04-03T15:18:22;8.60;99.90
59999;DHT22;45859;51.378;6.736;2023-04-03T15:20:49;8.30;99.90
59999;DHT22;45859;51.378;6.736;2023-04-03T15:23:16;8.30;99.90
59999;DHT22;45859;51.378;6.736;2023-04-03T15:25:43;8.40;99.90
59999;DHT22;45859;51.378;6.736;2023-04-03T15:30:43;8.80;99.90
59999;DHT22;45859;51.378;6.736;2023-04-03T15:33:09;8.50;99.90
59999;DHT22;45859;51.378;6.736;2023-04-03T15:35:34;8.40;99.90
59999;DHT22;45859;51.378;6.736;2023-04-03T15:38:00;8.40;99.90
59999;DHT22;45859;51.378;6.736;2023-04-03T15:40:26;8.50;99.90
59999;DHT22;45859;51.378;6.736;2023-04-03T15:42:51;8.40;99.90
59999;DHT22;45859;51.378;6.736;2023-04-03T15:45:17;8.40;99.90
59999;DHT22;45859;51.378;6.736;2023-04-03T15:47:43;8.30;99.90
59999;DHT22;45859;51.378;6.736;2023-04-03T15:50:09;8.30;99.90
59999;DHT22;45859;51.378;6.736;2023-04-03T15:52:35;8.40;99.90
59999;DHT22;45859;51.378;6.736;2023-04-03T15:55:01;8.30;99.90
59999;DHT22;45859;51.378;6.736;2023-04-03T15:57:27;8.30;99.90
59999;DHT22;45859;51.378;6.736;2023-04-03T15:59:52;8.10;99.90
59999;DHT22;45859;51.378;6.736;2023-04-03T16:02:18;8.20;99.90
59999;DHT22;45859;51.378;6.736;2023-04-03T16:04:44;9.20;99.90
59999;DHT22;45859;51.378;6.736;2023-04-03T16:07:10;8.20;99.90
59999;DHT22;45859;51.378;6.736;2023-04-03T16:09:36;8.20;99.90
59999;DHT22;45859;51.378;6.736;2023-04-03T16:12:01;8.20;99.90
59999;DHT22;45859;51.378;6.736;2023-04-03T16:14:28;8.20;99.90
59999;DHT22;45859;51.378;6.736;2023-04-03T16:16:56;8.10;99.90
59999;DHT22;45859;51.378;6.736;2023-04-03T16:19:22;8.20;99.90
59999;DHT22;45859;51.378;6.736;2023-04-03T16:21:47;8.10;99.90
59999;DHT22;45859;51.378;6.736;2023-04-03T16:24:13;8.10;99.90
59999;DHT22;45859;51.378;6.736;2023-04-03T16:26:39;8.10;99.90
59999;DHT22;45859;51.378;6.736;2023-04-03T16:29:04;8.60;99.90
59999;DHT22;45859;51.378;6.736;2023-04-03T16:31:32;8.30;99.90
59999;DHT22;45859;51.378;6.736;2023-04-03T16:33:57;8.10;99.90
59999;DHT22;45859;51.378;6.736;2023-04-03T16:36:24;8.10;99.90
59999;DHT22;45859;51.378;6.736;2023-04-03T16:38:51;8.00;99.90
59999;DHT22;45859;51.378;6.736;2023-04-03T16:41:16;8.00;99.90
59999;DHT22;45859;51.378;6.736;2023-04-03T16:43:42;8.90;99.90
59999;DHT22;45859;51.378;6.736;2023-04-03T16:46:08;8.00;99.90
59999;DHT22;45859;51.378;6.736;2023-04-03T16:48:34;7.90;99.90
59999;DHT22;45859;51.378;6.736;2023-04-03T16:51:00;8.90;99.90
59999;DHT22;45859;51.378;6.736;2023-04-03T16:53:26;6.90;99.90
59999;DHT22;45859;51.378;6.736;2023-04-03T16:55:52;7.90;99.90
59999;DHT22;45859;51.378;6.736;2023-04-03T16:58:18;7.20;99.90
59999;DHT22;45859;51.378;6.736;2023-04-03T17:00:44;7.50;99.90
59999;DHT22;45859;51.378;6.736;2023-04-03T17:03:10;8.60;99.90
59999;DHT22;45859;51.378;6.736;2023-04-03T17:05:35;7.80;99.90
59999;DHT22;45859;51.378;6.736;2023-04-03T17:08:01;7.70;99.90
59999;DHT22;45859;51.378;6.736;2023-04-03T17:10:27;7.70;99.90
59999;DHT22;45859;51.378;6.736;2023-04-03T17:12:53;7.90;99.90
59999;DHT22;45859;51.378;6.736;2023-04-03T17:15:19;8.10;99.90
59999;DHT22;45859;51.378;6.736;2023-04-03T17:17:46;7.60;99.90
59999;DHT22;45859;51.378;6.736;2023-04-03T17:20:12;7.60;99.90
59999;DHT22;45859;51.378;6.736;2023-04-03T17:22:38;6.00;99.90
59999;DHT22;45859;51.378;6.736;2023-04-03T17:25:04;7.50;99.90
59999;DHT22;45859;51.378;6.736;2023-04-03T17:27:30;7.70;99.90
59999;DHT22;45859;51.378;6.736;2023-04-03T17:29:55;7.50;99.90
59999;DHT22;45859;51.378;6.736;2023-04-03T17:32:21;7.40;99.90
59999;DHT22;45859;51.378;6.736;2023-04-03T17:34:48;7.40;99.90
59999;DHT22;45859;51.378;6.736;2023-04-03T17:37:13;7.40;99.90
59999;DHT22;45859;51.378;6.736;2023-04-03T17:39:39;6.50;99.90
59999;DHT22;45859;51.378;6.736;2023-04-03T17:42:05;6.90;99.90
59999;DHT22;45859;51.378;6.736;2023-04-03T17:44:30;7.50;99.90
59999;DHT22;45859;51.378;6.736;2023-04-03T17:46:56;7.00;99.90
59999;DHT22;45859;51.378;6.736;2023-04-03T17:49:22;6.50;99.90
59999;DHT22;45859;51.378;6.736;2023-04-03T17:51:48;7.00;99.90
59999;DHT22;45859;51.378;6.736;2023-04-03T17:54:13;7.10;99.90
59999;DHT22;45859;51.378;6.736;2023-04-03T17:56:39;6.90;99.90
59999;DHT22;45859;51.378;6.736;2023-04-03T17:59:12;7.10;99.90
59999;DHT22;45859;51.378;6.736;2023-04-03T18:01:37;7.00;99.90
59999;DHT22;45859;51.378;6.736;2023-04-03T18:04:03;7.30;99.90
59999;DHT22;45859;51.378;6.736;2023-04-03T18:06:32;8.00;99.90
59999;DHT22;45859;51.378;6.736;2023-04-03T18:09:04;5.90;99.90
59999;DHT22;45859;51.378;6.736;2023-04-03T18:11:32;7.10;99.90
59999;DHT22;45859;51.378;6.736;2023-04-03T18:13:59;6.70;99.90
59999;DHT22;45859;51.378;6.736;2023-04-03T18:16:25;5.70;99.90
59999;DHT22;45859;51.378;6.736;2023-04-03T18:18:51;6.40;99.90
59999;DHT22;45859;51.378;6.736;2023-04-03T18:21:17;6.70;99.90
59999;DHT22;45859;51.378;6.736;2023-04-03T18:23:47;4.90;99.90
59999;DHT22;45859;51.378;6.736;2023-04-03T18:26:14;6.60;99.90
59999;DHT22;45859;51.378;6.736;2023-04-03T18:28:43;7.60;99.90
59999;DHT22;45859;51.378;6.736;2023-04-03T18:31:11;5.90;99.90
59999;DHT22;45859;51.378;6.736;2023-04-03T18:33:40;7.20;99.90
59999;DHT22;45859;51.378;6.736;2023-04-03T18:36:06;6.50;99.90
59999;DHT22;45859;51.378;6.736;2023-04-03T18:38:31;5.90;99.90
59999;DHT22;45859;51.378;6.736;2023-04-03T18:40:57;6.30;99.90
59999;DHT22;45859;51.378;6.736;2023-04-03T18:43:25;6.30;99.90
59999;DHT22;45859;51.378;6.736;2023-04-03T18:45:51;6.40;99.90
59999;DHT22;45859;51.378;6.736;2023-04-03T18:48:18;6.20;99.90
59999;DHT22;45859;51.378;6.736;2023-04-03T18:50:44;6.30;99.90
59999;DHT22;45859;51.378;6.736;2023-04-03T18:53:10;6.80;99.90
59999;DHT22;45859;51.378;6.736;2023-04-03T18:58:01;6.10;99.90
59999;DHT22;45859;51.378;6.736;2023-04-03T19:00:27;5.40;99.90
59999;DHT22;45859;51.378;6.736;2023-04-03T19:02:53;6.00;99.90
59999;DHT22;45859;51.378;6.736;2023-04-03T19:05:19;6.80;99.90
59999;DHT22;45859;51.378;6.736;2023-04-03T19:07:47;5.90;99.90
59999;DHT22;45859;51.378;6.736;2023-04-03T19:10:15;4.20;99.90
59999;DHT22;45859;51.378;6.736;2023-04-03T19:12:45;5.90;99.90
59999;DHT22;45859;51.378;6.736;2023-04-03T19:15:15;5.90;99.90
59999;DHT22;45859;51.378;6.736;2023-04-03T19:17:41;5.70;99.90